createdAt,value
2018-07-19T00:01:06.567Z,99.90
2018-07-19T00:03:34.866Z,99.90
2018-07-19T00:06:03.223Z,99.90
2018-07-19T00:08:31.549Z,99.90
2018-07-19T00:10:59.818Z,99.90
2018-07-19T00:13:28.102Z,99.90
2018-07-19T00:15:57.004Z,99.90
2018-07-19T00:18:26.066Z,99.90
2018-07-19T00:20:55.551Z,99.90
2018-07-19T00:23:24.600Z,99.90
2018-07-19T00:25:52.912Z,99.90
2018-07-19T00:28:21.271Z,99.90
2018-07-19T00:33:17.552Z,99.90
2018-07-19T00:35:45.819Z,99.90
2018-07-19T00:38:14.079Z,99.90
2018-07-19T00:40:42.416Z,99.90
2018-07-19T00:43:10.710Z,99.90
2018-07-19T00:45:39.075Z,99.90
2018-07-19T00:48:07.544Z,99.90
2018-07-19T00:50:35.835Z,99.90
2018-07-19T00:53:04.278Z,99.90
2018-07-19T00:55:32.545Z,99.90
2018-07-19T00:58:00.849Z,99.90
2018-07-19T01:00:29.128Z,99.90
2018-07-19T01:02:57.435Z,99.90
2018-07-19T01:05:25.697Z,99.90
2018-07-19T01:07:54.039Z,99.90
2018-07-19T01:10:22.368Z,99.90
2018-07-19T01:12:50.638Z,99.90
2018-07-19T01:15:18.947Z,99.90
2018-07-19T01:17:47.191Z,99.90
2018-07-19T01:20:15.506Z,99.90
2018-07-19T01:22:43.800Z,99.90
2018-07-19T01:25:12.170Z,99.90
2018-07-19T01:27:40.465Z,99.90
2018-07-19T01:30:08.794Z,99.90
2018-07-19T01:32:37.074Z,99.90
2018-07-19T01:35:05.582Z,99.90
2018-07-19T01:37:33.834Z,99.90
2018-07-19T01:42:33.152Z,99.90
2018-07-19T01:45:01.514Z,99.90
2018-07-19T01:47:29.799Z,99.90
2018-07-19T01:52:26.037Z,99.90
2018-07-19T01:57:29.184Z,99.90
2018-07-19T01:59:57.506Z,99.90
2018-07-19T02:02:25.770Z,99.90
2018-07-19T02:04:54.020Z,99.90
2018-07-19T02:07:22.332Z,99.90
2018-07-19T02:09:50.584Z,99.90
2018-07-19T02:12:18.903Z,99.90
2018-07-19T02:14:47.135Z,99.90
2018-07-19T02:17:15.427Z,99.90
2018-07-19T02:19:43.723Z,99.90
2018-07-19T02:24:39.982Z,99.90
2018-07-19T02:27:08.320Z,99.90
2018-07-19T02:29:36.571Z,99.90
2018-07-19T02:32:05.526Z,99.90
2018-07-19T02:34:33.835Z,99.90
2018-07-19T02:37:02.154Z,99.90
2018-07-19T02:39:30.471Z,99.90
2018-07-19T02:41:58.763Z,99.90
2018-07-19T02:44:27.043Z,99.90
2018-07-19T02:46:55.316Z,99.90
2018-07-19T02:49:23.567Z,99.90
2018-07-19T02:51:51.856Z,99.90
2018-07-19T02:54:20.159Z,99.90
2018-07-19T02:56:48.445Z,99.90
2018-07-19T02:59:16.775Z,99.90
2018-07-19T03:01:45.052Z,99.90
2018-07-19T03:04:13.295Z,99.90
2018-07-19T03:06:41.572Z,99.90
2018-07-19T03:09:09.854Z,99.90
2018-07-19T03:11:38.082Z,99.90
2018-07-19T03:14:06.351Z,99.90
2018-07-19T03:16:34.615Z,99.90
2018-07-19T03:19:02.900Z,99.90
2018-07-19T03:21:31.174Z,99.90
2018-07-19T03:23:59.490Z,99.90
2018-07-19T03:26:27.815Z,99.90
2018-07-19T03:28:56.104Z,99.90
2018-07-19T03:31:24.329Z,99.90
2018-07-19T03:33:53.038Z,99.90
2018-07-19T03:36:21.255Z,99.90
2018-07-19T03:38:49.680Z,99.90
2018-07-19T03:41:17.948Z,99.90
2018-07-19T03:43:46.206Z,99.90
2018-07-19T03:46:14.524Z,99.90
2018-07-19T03:48:42.797Z,99.90
2018-07-19T03:51:11.093Z,99.90
2018-07-19T03:53:39.399Z,99.90
2018-07-19T03:56:07.720Z,99.90
2018-07-19T03:58:35.982Z,99.90
2018-07-19T04:01:04.224Z,99.90
2018-07-19T04:03:32.479Z,99.90
2018-07-19T04:06:00.806Z,99.90
2018-07-19T04:08:29.082Z,99.90
2018-07-19T04:10:57.331Z,99.90
2018-07-19T04:13:25.590Z,99.90
2018-07-19T04:15:54.193Z,99.90
2018-07-19T04:18:22.496Z,99.90
2018-07-19T04:20:50.802Z,99.90
2018-07-19T04:25:47.195Z,99.90
2018-07-19T04:28:15.507Z,99.90
2018-07-19T04:30:43.799Z,99.90
2018-07-19T04:35:40.075Z,99.90
2018-07-19T04:38:08.368Z,99.90
2018-07-19T04:40:36.624Z,99.90
2018-07-19T04:43:04.896Z,99.90
2018-07-19T04:45:33.171Z,99.90
2018-07-19T04:48:01.476Z,99.90
2018-07-19T04:50:29.798Z,99.90
2018-07-19T04:52:58.171Z,99.90
2018-07-19T04:57:54.455Z,99.90
2018-07-19T05:00:23.670Z,99.90
2018-07-19T05:02:51.953Z,99.90
2018-07-19T05:05:20.268Z,99.90
2018-07-19T05:07:48.567Z,99.90
2018-07-19T05:10:16.881Z,99.90
2018-07-19T05:12:45.183Z,99.90
2018-07-19T05:15:13.507Z,99.90
2018-07-19T05:17:41.791Z,99.90
2018-07-19T05:20:10.087Z,99.90
2018-07-19T05:22:38.341Z,99.90
2018-07-19T05:25:06.620Z,99.90
2018-07-19T05:27:34.919Z,99.90
2018-07-19T05:30:03.361Z,99.90
2018-07-19T05:32:31.634Z,99.90
2018-07-19T05:34:59.944Z,99.90
2018-07-19T05:37:28.211Z,99.90
2018-07-19T05:39:56.479Z,99.90
2018-07-19T05:42:31.569Z,99.90
2018-07-19T05:44:59.792Z,99.90
2018-07-19T05:47:28.731Z,99.90
2018-07-19T05:49:57.132Z,99.90
2018-07-19T05:52:25.447Z,99.90
2018-07-19T05:54:53.739Z,99.90
2018-07-19T05:57:22.016Z,99.90
2018-07-19T05:59:50.325Z,99.90
2018-07-19T06:02:18.627Z,99.90
2018-07-19T06:04:46.925Z,99.90
2018-07-19T06:07:15.190Z,99.90
2018-07-19T06:09:43.570Z,99.90
2018-07-19T06:12:11.724Z,99.90
2018-07-19T06:14:39.971Z,99.90
2018-07-19T06:17:08.236Z,99.90
2018-07-19T06:19:36.517Z,99.90
2018-07-19T06:22:04.790Z,99.90
2018-07-19T06:24:33.085Z,99.90
2018-07-19T06:27:01.379Z,99.90
2018-07-19T06:29:29.665Z,99.90
2018-07-19T06:31:57.938Z,99.90
2018-07-19T06:34:26.171Z,99.90
2018-07-19T06:36:54.453Z,99.90
2018-07-19T06:39:22.702Z,99.90
2018-07-19T06:41:50.960Z,99.90
2018-07-19T06:44:19.225Z,99.90
2018-07-19T06:46:47.597Z,99.90
2018-07-19T06:49:15.822Z,99.90
2018-07-19T06:51:44.059Z,99.90
2018-07-19T06:54:12.291Z,99.90
2018-07-19T06:56:40.583Z,99.90
2018-07-19T06:59:08.839Z,99.90
2018-07-19T07:01:37.142Z,99.90
2018-07-19T07:06:33.439Z,99.90
2018-07-19T07:09:01.801Z,98.40
2018-07-19T07:11:29.997Z,99.90
2018-07-19T07:13:58.255Z,99.20
2018-07-19T07:16:26.476Z,98.10
2018-07-19T07:18:54.709Z,97.50
2018-07-19T07:21:23.028Z,97.90
2018-07-19T07:23:51.239Z,97.60
2018-07-19T07:26:19.871Z,97.00
2018-07-19T07:28:48.225Z,96.70
2018-07-19T07:31:16.469Z,96.10
2018-07-19T07:33:44.736Z,95.20
2018-07-19T07:36:13.042Z,94.80
2018-07-19T07:38:41.287Z,94.40
2018-07-19T07:43:37.595Z,93.20
2018-07-19T07:46:05.860Z,93.30
2018-07-19T07:48:34.166Z,92.60
2018-07-19T07:51:02.468Z,91.80
2018-07-19T07:53:30.699Z,92.60
2018-07-19T07:55:58.996Z,93.10
2018-07-19T08:00:56.598Z,92.20
2018-07-19T08:05:52.917Z,91.00
2018-07-19T08:08:21.150Z,90.60
2018-07-19T08:10:49.446Z,90.70
2018-07-19T08:13:17.696Z,89.70
2018-07-19T08:15:45.960Z,90.40
2018-07-19T08:18:14.177Z,90.10
2018-07-19T08:20:42.452Z,89.30
2018-07-19T08:23:10.719Z,87.30
2018-07-19T08:25:38.981Z,85.40
2018-07-19T08:28:07.256Z,85.90
2018-07-19T08:30:35.559Z,84.60
2018-07-19T08:33:03.841Z,82.80
2018-07-19T08:35:32.068Z,81.20
2018-07-19T08:38:00.765Z,81.20
2018-07-19T08:40:29.062Z,79.70
2018-07-19T08:42:57.337Z,81.90
2018-07-19T08:45:25.564Z,83.70
2018-07-19T08:47:53.828Z,80.20
2018-07-19T08:52:50.120Z,71.70
2018-07-19T08:55:19.388Z,66.40
2018-07-19T08:57:47.654Z,64.60
2018-07-19T09:02:45.429Z,65.80
2018-07-19T09:05:13.976Z,66.50
2018-07-19T09:07:42.234Z,68.40
2018-07-19T09:10:11.259Z,66.10
2018-07-19T09:12:39.633Z,65.50
2018-07-19T09:15:08.016Z,61.80
2018-07-19T09:17:36.361Z,55.70
2018-07-19T09:20:05.091Z,53.30
2018-07-19T09:22:33.432Z,51.40
2018-07-19T09:25:01.801Z,51.30
2018-07-19T09:27:30.137Z,48.50
2018-07-19T09:32:26.368Z,47.30
2018-07-19T09:34:54.647Z,44.60
2018-07-19T09:37:22.938Z,45.60
2018-07-19T09:39:51.252Z,48.90
2018-07-19T09:42:19.899Z,49.90
2018-07-19T09:44:48.257Z,45.80
2018-07-19T09:47:16.554Z,44.90
2018-07-19T09:54:52.495Z,43.90
2018-07-19T09:57:21.031Z,42.50
2018-07-19T10:02:17.421Z,42.30
2018-07-19T10:04:45.766Z,40.70
2018-07-19T10:07:14.094Z,39.60
2018-07-19T10:09:42.475Z,38.80
2018-07-19T10:12:11.040Z,37.80
2018-07-19T10:14:39.279Z,37.60
2018-07-19T10:19:35.807Z,36.20
2018-07-19T10:22:04.132Z,36.90
2018-07-19T10:24:32.427Z,36.00
2018-07-19T10:27:00.684Z,35.20
2018-07-19T10:29:29.011Z,34.20
2018-07-19T10:31:57.381Z,34.70
2018-07-19T10:34:25.815Z,34.60
2018-07-19T10:36:54.124Z,34.70
2018-07-19T10:39:22.437Z,36.20
2018-07-19T10:44:18.838Z,32.40
2018-07-19T10:46:47.158Z,32.30
2018-07-19T10:49:15.465Z,31.90
2018-07-19T10:51:43.858Z,32.10
2018-07-19T10:54:12.032Z,32.30
2018-07-19T10:56:40.355Z,32.60
2018-07-19T10:59:08.637Z,31.30
2018-07-19T11:04:05.529Z,31.10
2018-07-19T11:06:33.821Z,30.70
2018-07-19T11:09:02.106Z,31.20
2018-07-19T11:11:30.422Z,33.70
2018-07-19T11:13:58.702Z,31.60
2018-07-19T11:16:26.986Z,32.80
2018-07-19T11:18:55.217Z,32.30
2018-07-19T11:21:23.650Z,32.10
2018-07-19T11:23:52.133Z,31.30
2018-07-19T11:28:49.756Z,31.50
2018-07-19T11:31:18.200Z,31.40
2018-07-19T11:33:46.833Z,31.20
2018-07-19T11:36:15.063Z,32.80
2018-07-19T11:38:43.362Z,33.00
2018-07-19T11:41:11.612Z,31.00
2018-07-19T11:43:39.875Z,29.90
2018-07-19T11:48:36.111Z,30.00
2018-07-19T11:53:32.425Z,29.70
2018-07-19T11:56:00.670Z,29.20
2018-07-19T11:58:28.968Z,29.50
2018-07-19T12:00:57.254Z,30.30
2018-07-19T12:03:25.563Z,29.90
2018-07-19T12:08:21.800Z,32.10
2018-07-19T12:10:50.843Z,32.90
2018-07-19T12:13:19.090Z,36.30
2018-07-19T12:15:47.342Z,36.40
2018-07-19T12:18:15.627Z,38.00
2018-07-19T12:20:43.943Z,38.40
2018-07-19T12:23:12.209Z,37.40
2018-07-19T12:25:40.445Z,38.60
2018-07-19T12:28:08.757Z,39.50
2018-07-19T12:30:37.034Z,39.50
2018-07-19T12:33:05.384Z,41.10
2018-07-19T12:35:33.692Z,42.50
2018-07-19T12:38:01.935Z,38.90
2018-07-19T12:40:30.317Z,38.70
2018-07-19T12:42:58.662Z,37.70
2018-07-19T12:45:27.011Z,33.80
2018-07-19T12:47:55.224Z,33.70
2018-07-19T12:50:23.790Z,31.90
2018-07-19T12:52:52.029Z,32.10
2018-07-19T12:55:20.414Z,33.00
2018-07-19T12:57:48.654Z,33.70
2018-07-19T13:00:17.209Z,34.10
2018-07-19T13:02:45.431Z,34.90
2018-07-19T13:07:41.712Z,34.30
2018-07-19T13:10:09.987Z,33.70
2018-07-19T13:12:38.313Z,34.00
2018-07-19T13:15:07.306Z,34.60
2018-07-19T13:17:35.615Z,34.50
2018-07-19T13:20:04.402Z,35.20
2018-07-19T13:22:32.819Z,35.70
2018-07-19T13:25:01.346Z,36.20
2018-07-19T13:27:29.611Z,36.20
2018-07-19T13:32:26.128Z,39.20
2018-07-19T13:34:54.429Z,36.90
2018-07-19T13:37:22.883Z,37.80
2018-07-19T13:39:51.168Z,38.10
2018-07-19T13:42:19.896Z,38.80
2018-07-19T13:44:48.541Z,39.00
2018-07-19T13:47:16.860Z,40.10
2018-07-19T13:52:13.191Z,39.30
2018-07-19T13:54:45.612Z,39.50
2018-07-19T13:57:13.916Z,39.40
2018-07-19T13:59:42.218Z,40.90
2018-07-19T14:02:10.735Z,39.10
2018-07-19T14:04:39.019Z,39.70
2018-07-19T14:07:07.312Z,38.60
2018-07-19T14:09:36.328Z,38.90
2018-07-19T14:12:04.688Z,40.80
2018-07-19T14:14:32.963Z,41.00
2018-07-19T14:17:01.295Z,41.20
2018-07-19T14:19:29.647Z,40.50
2018-07-19T14:21:57.885Z,40.50
2018-07-19T14:24:26.628Z,40.10
2018-07-19T14:29:22.909Z,41.30
2018-07-19T14:31:51.356Z,40.80
2018-07-19T14:34:19.637Z,41.40
2018-07-19T14:36:47.904Z,41.50
2018-07-19T14:39:16.198Z,40.70
2018-07-19T14:41:44.425Z,39.80
2018-07-19T14:44:12.713Z,39.20
2018-07-19T14:46:41.035Z,40.20
2018-07-19T14:49:09.310Z,41.10
2018-07-19T14:51:37.570Z,40.10
2018-07-19T14:56:34.499Z,39.80
2018-07-19T14:59:02.743Z,39.50
2018-07-19T15:01:31.040Z,40.60
2018-07-19T15:03:59.362Z,38.80
2018-07-19T15:08:55.641Z,40.90
2018-07-19T15:11:23.956Z,41.90
2018-07-19T15:13:52.248Z,43.00
2018-07-19T15:18:48.567Z,42.50
2018-07-19T15:21:16.823Z,42.90
2018-07-19T15:23:45.118Z,43.80
2018-07-19T15:26:13.420Z,42.70
2018-07-19T15:28:41.680Z,42.90
2018-07-19T15:31:10.074Z,44.40
2018-07-19T15:36:06.356Z,43.90
2018-07-19T17:00:32.848Z,43.20
2018-07-19T17:03:01.363Z,46.20
2018-07-19T17:05:29.675Z,47.10
2018-07-19T17:07:58.172Z,47.60
2018-07-19T17:10:27.230Z,46.60
2018-07-19T17:12:55.648Z,47.50
2018-07-19T17:15:24.083Z,48.30
2018-07-19T17:17:52.614Z,48.20
2018-07-19T17:20:21.095Z,48.60
2018-07-19T17:22:49.548Z,49.30
2018-07-19T17:27:45.967Z,48.40
2018-07-19T17:30:14.567Z,48.50
2018-07-19T17:32:42.961Z,49.20
2018-07-19T17:35:11.328Z,48.10
2018-07-19T17:37:39.753Z,48.00
2018-07-19T17:40:08.228Z,47.80
2018-07-19T17:42:36.755Z,47.90
2018-07-19T17:45:05.361Z,48.30
2018-07-19T17:50:01.943Z,48.00
2018-07-19T17:52:30.420Z,48.00
2018-07-19T17:54:58.804Z,49.00
2018-07-19T17:59:55.374Z,49.30
2018-07-19T18:02:23.748Z,49.30
2018-07-19T18:04:52.332Z,49.00
2018-07-19T18:07:20.786Z,50.70
2018-07-19T18:09:49.127Z,49.90
2018-07-19T18:14:45.819Z,50.50
2018-07-19T18:17:14.193Z,51.30
2018-07-19T18:19:42.543Z,50.60
2018-07-19T18:22:11.044Z,52.20
2018-07-19T18:24:39.409Z,51.70
2018-07-19T18:29:36.080Z,52.30
2018-07-19T18:32:04.701Z,53.00
2018-07-19T18:34:33.064Z,52.60
2018-07-19T18:37:01.412Z,53.50
2018-07-19T18:41:58.381Z,53.80
2018-07-19T18:44:26.986Z,55.80
2018-07-19T18:46:55.374Z,55.40
2018-07-19T18:49:24.060Z,57.20
2018-07-19T18:51:52.755Z,55.60
2018-07-19T18:54:21.207Z,56.00
2018-07-19T18:56:49.961Z,56.20
2018-07-19T18:59:18.426Z,57.40
2018-07-19T19:01:47.189Z,58.10
2018-07-19T19:04:15.540Z,58.10
2018-07-19T19:06:43.907Z,58.30
2018-07-19T19:09:12.683Z,58.60
2018-07-19T19:11:41.233Z,59.40
2018-07-19T19:14:09.826Z,61.70
2018-07-19T19:16:38.294Z,60.90
2018-07-19T19:19:06.781Z,61.50
2018-07-19T19:21:35.248Z,62.20
2018-07-19T19:24:03.835Z,61.90
2018-07-19T19:26:32.760Z,63.40
2018-07-19T19:31:29.420Z,65.40
2018-07-19T19:33:57.885Z,65.20
2018-07-19T19:36:26.645Z,64.40
2018-07-19T19:38:55.290Z,65.30
2018-07-19T19:41:23.728Z,66.80
2018-07-19T19:43:51.976Z,68.00
2018-07-19T19:46:20.248Z,68.10
2018-07-19T19:48:48.484Z,68.30
2018-07-19T19:51:16.741Z,69.10
2018-07-19T19:53:44.983Z,70.60
2018-07-19T19:56:13.288Z,71.60
2018-07-19T19:58:41.572Z,70.80
2018-07-19T20:01:09.827Z,70.90
2018-07-19T20:03:38.150Z,72.10
2018-07-19T20:06:06.456Z,73.00
2018-07-19T20:08:34.784Z,73.50
2018-07-19T20:11:03.210Z,73.70
2018-07-19T20:13:31.476Z,73.70
2018-07-19T20:15:59.682Z,77.20
2018-07-19T20:18:27.984Z,78.70
2018-07-19T20:20:56.296Z,79.10
2018-07-19T20:23:24.520Z,78.30
2018-07-19T20:25:52.883Z,77.90
2018-07-19T20:28:21.140Z,78.30
2018-07-19T20:30:49.461Z,77.30
2018-07-19T20:33:17.712Z,79.70
2018-07-19T20:35:46.004Z,78.60
2018-07-19T20:38:14.305Z,80.50
2018-07-19T20:40:42.696Z,80.20
2018-07-19T20:43:11.001Z,81.90
2018-07-19T20:45:39.845Z,82.60
2018-07-19T20:48:08.224Z,82.80
2018-07-19T20:50:36.494Z,83.90
2018-07-19T20:53:04.765Z,84.70
2018-07-19T20:55:33.047Z,86.80
2018-07-19T20:58:01.369Z,88.20
2018-07-19T21:00:29.704Z,90.20
2018-07-19T21:02:58.020Z,88.90
2018-07-19T21:05:26.271Z,90.30
2018-07-19T21:07:54.693Z,90.60
2018-07-19T21:10:22.927Z,90.80
2018-07-19T21:12:51.239Z,91.10
2018-07-19T21:15:19.628Z,91.00
2018-07-19T21:17:48.585Z,91.20
2018-07-19T21:20:16.955Z,90.80
2018-07-19T21:27:41.282Z,91.00
2018-07-19T21:30:09.604Z,90.80
2018-07-19T21:32:37.960Z,91.60
2018-07-19T21:35:06.308Z,91.80
2018-07-19T21:40:02.674Z,92.20
2018-07-19T21:42:31.016Z,92.50
2018-07-19T21:47:27.301Z,94.40
2018-07-19T21:49:55.592Z,94.50
2018-07-19T21:52:23.903Z,94.70
2018-07-19T21:54:52.252Z,95.70
2018-07-19T21:57:20.583Z,96.40
2018-07-19T21:59:48.895Z,97.20
2018-07-19T22:02:17.155Z,96.90
2018-07-19T22:04:45.454Z,97.30
2018-07-19T22:07:13.706Z,97.90
2018-07-19T22:09:42.050Z,98.30
2018-07-19T22:14:38.402Z,99.90
2018-07-19T22:17:06.717Z,99.90
2018-07-19T22:19:35.062Z,99.90
2018-07-19T22:24:31.335Z,99.90
2018-07-19T22:26:59.605Z,99.90
2018-07-19T22:29:27.895Z,99.90
2018-07-19T22:31:56.152Z,99.90
2018-07-19T22:34:24.596Z,99.90
2018-07-19T22:36:52.877Z,99.90
2018-07-19T22:39:21.164Z,99.90
2018-07-19T22:41:50.040Z,99.90
2018-07-19T22:44:18.311Z,99.90
2018-07-19T22:46:46.576Z,99.90
2018-07-19T22:49:14.899Z,99.90
2018-07-19T22:51:43.186Z,99.90
2018-07-19T22:54:11.473Z,99.90
2018-07-19T22:56:39.735Z,99.90
2018-07-19T22:59:08.003Z,99.90
2018-07-19T23:01:36.271Z,99.90
2018-07-19T23:04:04.550Z,99.90
2018-07-19T23:06:32.841Z,99.90
2018-07-19T23:09:01.128Z,99.90
2018-07-19T23:11:29.424Z,99.90
2018-07-19T23:13:57.678Z,99.90
2018-07-19T23:16:25.915Z,99.90
2018-07-19T23:18:54.149Z,99.90
2018-07-19T23:21:22.613Z,99.90
2018-07-19T23:23:50.852Z,99.90
2018-07-19T23:26:19.147Z,99.90
2018-07-19T23:28:48.150Z,99.90
2018-07-19T23:31:16.383Z,99.90
2018-07-19T23:33:44.660Z,99.90
2018-07-19T23:36:16.262Z,99.90
2018-07-19T23:38:49.405Z,99.90
2018-07-19T23:41:23.028Z,99.90
2018-07-19T23:43:54.939Z,99.90
2018-07-19T23:46:26.455Z,99.90
2018-07-19T23:48:56.014Z,99.90
2018-07-19T23:51:24.315Z,99.90
2018-07-19T23:53:53.047Z,99.90
2018-07-19T23:56:21.326Z,99.90
2018-07-19T23:58:49.636Z,99.90
